createdAt,value
2023-03-31T00:00:15.023Z,100197.16
2023-03-31T00:02:42.053Z,100195.69
2023-03-31T00:05:09.990Z,100193.03
2023-03-31T00:07:38.605Z,100193.47
2023-03-31T00:10:17.217Z,100195.66
2023-03-31T00:12:46.237Z,100200.72
2023-03-31T00:15:13.650Z,100190.66
2023-03-31T00:17:40.568Z,100186.91
2023-03-31T00:20:12.617Z,100188.56
2023-03-31T00:22:42.527Z,100181.34
2023-03-31T00:25:16.582Z,100173.63
2023-03-31T00:27:44.690Z,100172.63
2023-03-31T00:30:13.634Z,100171.53
2023-03-31T00:32:40.581Z,100174.91
2023-03-31T00:35:09.023Z,100171.47
2023-03-31T00:37:35.940Z,100173.03
2023-03-31T00:40:10.111Z,100169.88
2023-03-31T00:42:41.995Z,100167.91
2023-03-31T00:45:14.899Z,100160.50
2023-03-31T00:47:44.292Z,100150.09
2023-03-31T00:50:19.000Z,100162.16
2023-03-31T00:52:46.502Z,100158.41
2023-03-31T00:55:17.103Z,100169.09
2023-03-31T00:57:46.874Z,100163.78
2023-03-31T01:00:19.038Z,100155.38
2023-03-31T01:02:53.328Z,100148.53
2023-03-31T01:05:23.583Z,100148.75
2023-03-31T01:07:52.041Z,100142.50
2023-03-31T01:10:19.071Z,100139.38
2023-03-31T01:12:54.888Z,100129.47
2023-03-31T01:15:22.578Z,100128.00
2023-03-31T01:17:51.375Z,100132.00
2023-03-31T01:20:38.987Z,100129.22
2023-03-31T01:23:43.614Z,100120.19
2023-03-31T01:26:22.617Z,100121.69
2023-03-31T01:29:11.601Z,100119.94
2023-03-31T01:32:13.817Z,100111.72
2023-03-31T01:35:11.676Z,100114.25
2023-03-31T01:38:06.155Z,100109.03
2023-03-31T01:40:54.592Z,100108.22
2023-03-31T01:43:26.981Z,100108.34
2023-03-31T01:46:24.296Z,100096.09
2023-03-31T01:49:23.352Z,100091.97
2023-03-31T01:51:58.187Z,100093.06
2023-03-31T01:54:47.142Z,100087.19
2023-03-31T01:57:24.878Z,100082.53
2023-03-31T02:00:04.466Z,100094.94
2023-03-31T02:02:43.327Z,100086.16
2023-03-31T02:05:17.920Z,100085.50
2023-03-31T02:07:51.602Z,100076.34
2023-03-31T02:10:18.877Z,100066.31
2023-03-31T02:12:45.921Z,100074.31
2023-03-31T02:15:19.416Z,100068.41
2023-03-31T02:17:49.182Z,100067.41
2023-03-31T02:20:18.595Z,100064.72
2023-03-31T02:22:49.850Z,100061.03
2023-03-31T02:25:19.905Z,100066.22
2023-03-31T02:27:51.974Z,100061.28
2023-03-31T02:30:18.816Z,100062.97
2023-03-31T02:32:47.001Z,100061.09
2023-03-31T02:35:20.640Z,100056.13
2023-03-31T02:37:49.977Z,100043.38
2023-03-31T02:40:22.162Z,100053.53
2023-03-31T02:42:49.437Z,100048.91
2023-03-31T02:45:49.617Z,100049.78
2023-03-31T02:48:18.426Z,100042.28
2023-03-31T02:51:03.427Z,100034.13
2023-03-31T02:53:56.103Z,100024.56
2023-03-31T02:56:40.103Z,100024.31
2023-03-31T02:59:25.493Z,100022.75
2023-03-31T03:02:07.743Z,100020.38
2023-03-31T03:04:37.338Z,100018.50
2023-03-31T03:07:13.050Z,100014.97
2023-03-31T03:09:51.207Z,100015.06
2023-03-31T03:12:23.135Z,100015.91
2023-03-31T03:14:52.850Z,100015.75
2023-03-31T03:17:41.825Z,100008.53
2023-03-31T03:20:11.948Z,100013.16
2023-03-31T03:22:40.048Z,100003.75
2023-03-31T03:25:09.760Z,99994.78
2023-03-31T03:27:37.278Z,100000.53
2023-03-31T03:30:05.787Z,99993.16
2023-03-31T03:32:33.940Z,99987.66
2023-03-31T03:35:01.759Z,99975.66
2023-03-31T03:37:29.077Z,99984.50
2023-03-31T03:39:56.127Z,99979.72
2023-03-31T03:42:22.905Z,99978.53
2023-03-31T03:44:49.852Z,99977.94
2023-03-31T03:47:16.636Z,99966.28
2023-03-31T03:49:43.492Z,99976.81
2023-03-31T03:52:13.267Z,99967.47
2023-03-31T03:54:40.095Z,99967.16
2023-03-31T03:57:07.777Z,99971.81
2023-03-31T03:59:34.672Z,99967.47
2023-03-31T04:02:01.481Z,99960.41
2023-03-31T04:04:28.274Z,99959.44
2023-03-31T04:06:55.113Z,99960.41
2023-03-31T04:09:21.898Z,99964.88
2023-03-31T04:11:48.677Z,99952.00
2023-03-31T04:14:15.779Z,99962.19
2023-03-31T04:16:43.070Z,99948.06
2023-03-31T04:19:12.845Z,99946.34
2023-03-31T04:21:45.501Z,99948.56
2023-03-31T04:24:16.380Z,99943.44
2023-03-31T04:26:43.546Z,99941.47
2023-03-31T04:29:16.789Z,99941.25
2023-03-31T04:31:44.242Z,99938.59
2023-03-31T04:34:15.616Z,99937.69
2023-03-31T04:36:47.739Z,99931.19
2023-03-31T04:39:18.878Z,99928.75
2023-03-31T04:41:45.706Z,99924.22
2023-03-31T04:44:12.584Z,99931.03
2023-03-31T04:46:39.398Z,99922.72
2023-03-31T04:49:06.665Z,99921.59
2023-03-31T04:51:33.483Z,99921.59
2023-03-31T04:54:00.458Z,99917.53
2023-03-31T04:56:27.574Z,99911.31
2023-03-31T04:58:54.477Z,99908.59
2023-03-31T05:01:21.377Z,99903.03
2023-03-31T05:03:48.429Z,99891.66
2023-03-31T05:06:18.577Z,99892.31
2023-03-31T05:08:45.655Z,99891.28
2023-03-31T05:11:12.436Z,99884.13
2023-03-31T05:13:39.204Z,99884.13
2023-03-31T05:16:07.800Z,99882.34
2023-03-31T05:18:34.867Z,99883.22
2023-03-31T05:21:19.564Z,99886.63
2023-03-31T05:23:46.872Z,99875.78
2023-03-31T05:26:14.045Z,99866.84
2023-03-31T05:28:41.660Z,99852.09
2023-03-31T05:31:09.413Z,99855.38
2023-03-31T05:33:40.503Z,99857.97
2023-03-31T05:36:11.792Z,99858.53
2023-03-31T05:38:40.488Z,99854.34
2023-03-31T05:41:09.613Z,99856.00
2023-03-31T05:43:37.371Z,99857.09
2023-03-31T05:46:05.167Z,99852.09
2023-03-31T05:48:32.430Z,99849.22
2023-03-31T05:51:00.000Z,99835.28
2023-03-31T05:53:27.244Z,99835.50
2023-03-31T05:56:02.226Z,99839.81
2023-03-31T05:58:29.732Z,99829.16
2023-03-31T06:01:11.119Z,99835.16
2023-03-31T06:03:42.251Z,99830.72
2023-03-31T06:06:10.106Z,99828.03
2023-03-31T06:08:38.073Z,99812.69
2023-03-31T06:11:06.972Z,99824.47
2023-03-31T06:13:37.545Z,99816.84
2023-03-31T06:16:04.928Z,99815.66
2023-03-31T06:18:33.585Z,99807.50
2023-03-31T06:21:01.038Z,99807.09
2023-03-31T06:23:27.877Z,99800.72
2023-03-31T06:25:54.885Z,99805.09
2023-03-31T06:28:21.810Z,99792.28
2023-03-31T06:30:48.651Z,99790.03
2023-03-31T06:33:16.731Z,99794.06
2023-03-31T06:35:43.773Z,99780.84
2023-03-31T06:38:10.843Z,99782.91
2023-03-31T06:40:37.711Z,99785.66
2023-03-31T06:43:04.687Z,99780.78
2023-03-31T06:45:31.546Z,99776.63
2023-03-31T06:47:58.417Z,99778.88
2023-03-31T06:50:25.441Z,99780.25
2023-03-31T06:52:55.294Z,99774.69
2023-03-31T06:55:22.241Z,99772.19
2023-03-31T06:57:49.153Z,99774.50
2023-03-31T07:00:16.872Z,99768.66
2023-03-31T07:02:43.768Z,99771.75
2023-03-31T07:05:11.145Z,99764.50
2023-03-31T07:07:38.067Z,99763.28
2023-03-31T07:10:05.169Z,99755.25
2023-03-31T07:12:34.085Z,99752.09
2023-03-31T07:15:01.097Z,99744.09
2023-03-31T07:17:28.301Z,99745.22
2023-03-31T07:19:55.089Z,99745.91
2023-03-31T07:22:21.959Z,99743.34
2023-03-31T07:24:48.725Z,99736.34
2023-03-31T07:27:15.694Z,99749.13
2023-03-31T07:29:42.536Z,99736.22
2023-03-31T07:32:09.823Z,99738.91
2023-03-31T07:34:37.825Z,99727.28
2023-03-31T07:37:04.913Z,99735.34
2023-03-31T07:39:31.799Z,99729.31
2023-03-31T07:41:58.718Z,99726.00
2023-03-31T07:44:25.842Z,99727.31
2023-03-31T07:46:52.656Z,99728.81
2023-03-31T07:49:19.562Z,99722.34
2023-03-31T07:51:46.341Z,99723.53
2023-03-31T07:54:13.300Z,99711.41
2023-03-31T07:56:40.235Z,99714.31
2023-03-31T07:59:07.051Z,99706.47
2023-03-31T08:01:33.919Z,99704.38
2023-03-31T08:04:01.252Z,99706.53
2023-03-31T08:06:30.135Z,99699.84
2023-03-31T08:08:57.913Z,99692.03
2023-03-31T08:11:26.210Z,99691.84
2023-03-31T08:13:53.600Z,99692.31
2023-03-31T08:16:20.555Z,99692.41
2023-03-31T08:18:47.493Z,99691.41
2023-03-31T08:21:14.592Z,99689.22
2023-03-31T08:23:41.518Z,99693.22
2023-03-31T08:26:15.178Z,99687.03
2023-03-31T08:28:49.012Z,99670.91
2023-03-31T08:31:16.627Z,99677.00
2023-03-31T08:33:45.489Z,99675.72
2023-03-31T08:36:12.722Z,99666.47
2023-03-31T08:38:42.338Z,99661.31
2023-03-31T08:41:23.065Z,99656.56
2023-03-31T08:43:51.687Z,99644.28
2023-03-31T08:46:18.957Z,99649.81
2023-03-31T08:48:49.592Z,99652.06
2023-03-31T08:51:22.113Z,99642.66
2023-03-31T08:53:58.281Z,99647.16
2023-03-31T08:56:26.496Z,99641.63
2023-03-31T08:58:54.290Z,99641.72
2023-03-31T09:01:55.678Z,99630.78
2023-03-31T09:04:56.410Z,99624.66
2023-03-31T09:07:54.081Z,99621.25
2023-03-31T09:10:31.284Z,99608.38
2023-03-31T09:13:24.372Z,99602.34
2023-03-31T09:15:55.261Z,99605.81
2023-03-31T09:18:38.556Z,99610.69
2023-03-31T09:21:17.517Z,99606.31
2023-03-31T09:23:49.255Z,99613.06
2023-03-31T09:26:34.781Z,99600.06
2023-03-31T09:29:02.668Z,99596.44
2023-03-31T09:31:30.085Z,99591.78
2023-03-31T09:34:01.527Z,99581.28
2023-03-31T09:36:29.053Z,99578.38
2023-03-31T09:38:56.013Z,99575.19
2023-03-31T09:41:22.959Z,99568.31
2023-03-31T09:43:51.640Z,99566.50
2023-03-31T09:46:29.460Z,99569.19
2023-03-31T09:49:01.766Z,99567.00
2023-03-31T09:51:31.508Z,99560.63
2023-03-31T09:54:12.915Z,99561.31
2023-03-31T09:56:42.844Z,99556.56
2023-03-31T09:59:21.875Z,99552.28
2023-03-31T10:01:53.494Z,99548.44
2023-03-31T10:04:26.390Z,99550.50
2023-03-31T10:06:54.708Z,99546.63
2023-03-31T10:09:25.779Z,99546.41
2023-03-31T10:12:25.897Z,99534.41
2023-03-31T10:14:55.185Z,99532.66
2023-03-31T10:17:23.973Z,99529.50
2023-03-31T10:20:07.635Z,99523.94
2023-03-31T10:22:35.847Z,99520.97
2023-03-31T10:25:15.860Z,99519.84
2023-03-31T10:27:45.758Z,99518.19
2023-03-31T10:30:17.098Z,99517.03
2023-03-31T10:32:44.738Z,99515.69
2023-03-31T10:35:23.435Z,99520.09
2023-03-31T10:37:51.666Z,99517.34
2023-03-31T10:40:22.855Z,99509.34
2023-03-31T10:42:59.653Z,99508.38
2023-03-31T10:45:37.000Z,99513.28
2023-03-31T10:48:06.314Z,99504.63
2023-03-31T10:50:35.491Z,99503.47
2023-03-31T10:53:05.027Z,99493.94
2023-03-31T10:55:44.242Z,99491.63
2023-03-31T10:58:39.920Z,99489.66
2023-03-31T11:01:22.600Z,99482.19
2023-03-31T11:04:13.885Z,99474.75
2023-03-31T11:06:52.918Z,99467.84
2023-03-31T11:09:55.094Z,99457.75
2023-03-31T11:12:26.756Z,99457.56
2023-03-31T11:15:43.174Z,99446.09
2023-03-31T11:18:33.407Z,99450.16
2023-03-31T11:21:18.485Z,99440.28
2023-03-31T11:24:14.641Z,99428.69
2023-03-31T11:27:10.192Z,99431.66
2023-03-31T11:29:48.953Z,99414.81
2023-03-31T11:32:37.532Z,99418.13
2023-03-31T11:35:16.250Z,99422.66
2023-03-31T11:37:53.171Z,99408.31
2023-03-31T11:40:32.456Z,99407.78
2023-03-31T11:43:17.593Z,99408.34
2023-03-31T11:46:09.500Z,99399.63
2023-03-31T11:48:51.571Z,99403.47
2023-03-31T11:51:23.650Z,99398.47
2023-03-31T11:53:52.440Z,99393.84
2023-03-31T11:56:20.167Z,99399.28
2023-03-31T11:58:53.647Z,99392.88
2023-03-31T12:01:43.076Z,99384.34
2023-03-31T12:04:12.001Z,99381.16
2023-03-31T12:06:42.792Z,99375.19
2023-03-31T12:09:37.465Z,99372.13
2023-03-31T12:12:09.407Z,99364.72
2023-03-31T12:14:41.185Z,99362.50
2023-03-31T12:17:16.390Z,99357.75
2023-03-31T12:19:52.458Z,99355.00
2023-03-31T12:22:24.237Z,99351.97
2023-03-31T12:24:52.148Z,99347.06
2023-03-31T12:27:41.906Z,99341.34
2023-03-31T12:30:15.550Z,99342.28
2023-03-31T12:32:54.035Z,99342.78
2023-03-31T12:35:24.576Z,99347.97
2023-03-31T12:38:06.038Z,99346.72
2023-03-31T12:41:00.761Z,99357.44
2023-03-31T12:43:42.740Z,99357.28
2023-03-31T12:46:47.433Z,99356.91
2023-03-31T12:49:17.435Z,99357.53
2023-03-31T12:52:10.188Z,99352.88
2023-03-31T12:54:57.450Z,99357.38
2023-03-31T12:57:25.954Z,99343.25
2023-03-31T13:00:14.095Z,99341.66
2023-03-31T13:02:41.521Z,99343.91
2023-03-31T13:05:36.549Z,99331.28
2023-03-31T13:08:08.420Z,99328.03
2023-03-31T13:11:00.119Z,99330.09
2023-03-31T13:13:27.056Z,99327.16
2023-03-31T13:15:56.793Z,99328.03
2023-03-31T13:18:24.036Z,99323.50
2023-03-31T13:21:01.241Z,99320.31
2023-03-31T13:23:31.370Z,99314.44
2023-03-31T13:25:59.511Z,99321.16
2023-03-31T13:28:27.886Z,99318.72
2023-03-31T13:31:01.065Z,99315.31
2023-03-31T13:33:57.776Z,99314.75
2023-03-31T13:36:34.372Z,99317.63
2023-03-31T13:39:29.173Z,99319.88
2023-03-31T13:42:27.099Z,99321.16
2023-03-31T13:45:09.196Z,99320.59
2023-03-31T13:47:54.684Z,99314.06
2023-03-31T13:50:37.104Z,99316.69
2023-03-31T13:53:32.206Z,99316.47
2023-03-31T13:56:28.591Z,99319.25
2023-03-31T13:59:37.021Z,99318.41
2023-03-31T14:02:36.424Z,99319.16
2023-03-31T14:05:28.252Z,99322.03
2023-03-31T14:07:58.581Z,99313.22
2023-03-31T14:10:30.593Z,99313.78
2023-03-31T14:13:14.887Z,99315.72
2023-03-31T14:15:53.244Z,99314.19
2023-03-31T14:18:27.162Z,99311.72
2023-03-31T14:21:19.065Z,99311.00
2023-03-31T14:24:08.976Z,99306.56
2023-03-31T14:26:39.517Z,99304.53
2023-03-31T14:29:23.120Z,99307.97
2023-03-31T14:32:02.168Z,99303.59
2023-03-31T14:34:47.486Z,99300.53
2023-03-31T14:37:18.055Z,99302.56
2023-03-31T14:39:47.746Z,99303.19
2023-03-31T14:42:18.522Z,99297.84
2023-03-31T14:44:48.261Z,99295.81
2023-03-31T14:47:23.623Z,99293.78
2023-03-31T14:50:02.368Z,99292.31
2023-03-31T14:52:32.198Z,99291.84
2023-03-31T14:55:00.060Z,99288.66
2023-03-31T14:57:38.745Z,99283.97
2023-03-31T15:00:08.550Z,99279.19
2023-03-31T15:02:37.608Z,99283.66
2023-03-31T15:05:21.647Z,99280.50
2023-03-31T15:07:49.098Z,99289.16
2023-03-31T15:10:20.520Z,99284.72
2023-03-31T15:12:48.808Z,99286.88
2023-03-31T15:15:16.580Z,99292.97
2023-03-31T15:17:43.893Z,99287.63
2023-03-31T15:20:28.221Z,99287.31
2023-03-31T15:22:57.025Z,99285.69
2023-03-31T15:25:31.040Z,99289.31
2023-03-31T15:28:01.979Z,99278.59
2023-03-31T15:30:29.501Z,99286.63
2023-03-31T15:33:04.407Z,99281.97
2023-03-31T15:35:42.815Z,99276.44
2023-03-31T15:38:12.124Z,99273.91
2023-03-31T15:40:41.238Z,99273.97
2023-03-31T15:43:29.079Z,99270.56
2023-03-31T15:45:57.710Z,99271.75
2023-03-31T15:48:38.992Z,99267.84
2023-03-31T15:51:14.936Z,99268.69
2023-03-31T15:53:51.209Z,99272.47
2023-03-31T15:56:34.970Z,99274.19
2023-03-31T15:59:05.567Z,99269.88
2023-03-31T16:01:46.600Z,99264.78
2023-03-31T16:04:15.024Z,99264.03
2023-03-31T16:06:52.838Z,99272.78
2023-03-31T16:09:24.739Z,99261.25
2023-03-31T16:11:57.452Z,99260.31
2023-03-31T16:14:28.890Z,99259.75
2023-03-31T16:17:05.306Z,99262.88
2023-03-31T16:19:43.167Z,99260.22
2023-03-31T16:22:14.219Z,99255.94
2023-03-31T16:24:41.215Z,99253.88
2023-03-31T16:27:09.597Z,99263.84
2023-03-31T16:29:38.279Z,99254.13
2023-03-31T16:32:19.351Z,99262.13
2023-03-31T16:35:00.955Z,99257.44
2023-03-31T16:37:28.168Z,99256.22
2023-03-31T16:39:55.117Z,99265.41
2023-03-31T16:42:21.936Z,99264.78
2023-03-31T16:44:59.858Z,99268.19
2023-03-31T16:47:36.253Z,99269.09
2023-03-31T16:50:07.849Z,99265.00
2023-03-31T16:52:36.113Z,99256.66
2023-03-31T16:55:05.246Z,99268.00
2023-03-31T16:57:32.450Z,99264.59
2023-03-31T16:59:59.911Z,99266.28
2023-03-31T17:02:26.906Z,99259.31
2023-03-31T17:04:56.655Z,99269.28
2023-03-31T17:07:26.342Z,99272.69
2023-03-31T17:09:53.193Z,99276.09
2023-03-31T17:12:20.059Z,99276.63
2023-03-31T17:14:46.958Z,99277.28
2023-03-31T17:17:15.292Z,99279.38
2023-03-31T17:19:43.430Z,99272.28
2023-03-31T17:22:10.226Z,99272.22
2023-03-31T17:24:37.148Z,99269.44
2023-03-31T17:27:04.092Z,99267.53
2023-03-31T17:29:30.959Z,99273.25
2023-03-31T17:31:57.826Z,99268.31
2023-03-31T17:34:25.112Z,99269.38
2023-03-31T17:36:55.137Z,99268.22
2023-03-31T17:39:21.980Z,99273.66
2023-03-31T17:41:48.774Z,99268.63
2023-03-31T17:44:15.779Z,99266.13
2023-03-31T17:46:42.634Z,99268.91
2023-03-31T17:49:09.485Z,99271.59
2023-03-31T17:51:37.128Z,99263.97
2023-03-31T17:54:04.228Z,99264.72
2023-03-31T17:56:31.337Z,99266.28
2023-03-31T17:58:58.192Z,99272.22
2023-03-31T18:01:25.182Z,99275.38
2023-03-31T18:03:52.041Z,99282.06
2023-03-31T18:06:19.434Z,99275.47
2023-03-31T18:08:46.533Z,99278.03
2023-03-31T18:11:13.858Z,99279.84
2023-03-31T18:13:40.971Z,99273.16
2023-03-31T18:16:13.289Z,99275.63
2023-03-31T18:18:40.674Z,99268.13
2023-03-31T18:21:09.350Z,99275.38
2023-03-31T18:23:37.338Z,99265.50
2023-03-31T18:26:08.336Z,99271.72
2023-03-31T18:28:35.372Z,99272.22
2023-03-31T18:31:06.751Z,99283.03
2023-03-31T18:33:34.150Z,99275.38
2023-03-31T18:36:01.356Z,99271.28
2023-03-31T18:38:28.481Z,99285.50
2023-03-31T18:40:55.601Z,99276.13
2023-03-31T18:43:22.761Z,99279.75
2023-03-31T18:45:49.828Z,99280.25
2023-03-31T18:48:18.716Z,99281.66
2023-03-31T18:50:46.336Z,99289.59
2023-03-31T18:53:15.398Z,99294.25
2023-03-31T18:55:42.724Z,99290.66
2023-03-31T18:58:09.999Z,99292.28
2023-03-31T19:00:37.377Z,99292.00
2023-03-31T19:03:04.459Z,99288.47
2023-03-31T19:05:31.435Z,99290.06
2023-03-31T19:07:58.240Z,99294.13
2023-03-31T19:10:25.015Z,99299.91
2023-03-31T19:12:52.409Z,99296.88
2023-03-31T19:15:19.595Z,99305.25
2023-03-31T19:17:46.835Z,99304.19
2023-03-31T19:20:16.890Z,99304.28
2023-03-31T19:22:49.592Z,99302.69
2023-03-31T19:25:18.023Z,99303.84
2023-03-31T19:27:46.304Z,99302.50
2023-03-31T19:30:20.215Z,99301.06
2023-03-31T19:32:49.087Z,99304.41
2023-03-31T19:35:17.352Z,99303.06
2023-03-31T19:37:44.901Z,99295.63
2023-03-31T19:40:12.136Z,99303.75
2023-03-31T19:42:39.012Z,99296.66
2023-03-31T19:45:06.586Z,99302.00
2023-03-31T19:47:33.517Z,99303.56
2023-03-31T19:50:00.806Z,99296.13
2023-03-31T19:52:29.129Z,99301.47
2023-03-31T19:54:56.264Z,99292.97
2023-03-31T19:57:24.435Z,99290.50
2023-03-31T19:59:51.544Z,99298.31
2023-03-31T20:02:18.790Z,99307.25
2023-03-31T20:04:46.071Z,99302.22
2023-03-31T20:07:13.881Z,99299.56
2023-03-31T20:09:41.053Z,99304.63
2023-03-31T20:12:08.280Z,99306.63
2023-03-31T20:14:35.509Z,99304.72
2023-03-31T20:17:03.524Z,99302.91
2023-03-31T20:19:30.435Z,99312.72
2023-03-31T20:21:58.162Z,99306.94
2023-03-31T20:24:25.145Z,99315.50
2023-03-31T20:26:53.751Z,99314.56
2023-03-31T20:29:21.269Z,99306.31
2023-03-31T20:31:50.509Z,99313.88
2023-03-31T20:34:18.657Z,99315.03
2023-03-31T20:36:49.287Z,99315.41
2023-03-31T20:39:16.691Z,99307.28
2023-03-31T20:41:43.831Z,99317.50
2023-03-31T20:44:15.245Z,99313.31
2023-03-31T20:46:43.643Z,99306.81
2023-03-31T20:49:10.659Z,99307.31
2023-03-31T20:51:39.007Z,99310.25
2023-03-31T20:54:08.117Z,99308.66
2023-03-31T20:56:38.061Z,99303.59
2023-03-31T20:59:06.328Z,99303.78
2023-03-31T21:01:35.242Z,99309.22
2023-03-31T21:04:04.198Z,99307.50
2023-03-31T21:06:36.707Z,99293.78
2023-03-31T21:09:03.700Z,99312.09
2023-03-31T21:11:30.538Z,99321.41
2023-03-31T21:13:57.361Z,99319.81
2023-03-31T21:16:24.272Z,99315.22
2023-03-31T21:18:51.977Z,99313.31
2023-03-31T21:21:19.709Z,99311.19
2023-03-31T21:23:47.239Z,99324.09
2023-03-31T21:26:15.895Z,99318.06
2023-03-31T21:28:43.640Z,99321.13
2023-03-31T21:31:11.447Z,99314.38
2023-03-31T21:33:40.046Z,99315.81
2023-03-31T21:36:09.840Z,99325.22
2023-03-31T21:38:37.348Z,99321.53
2023-03-31T21:41:08.972Z,99329.81
2023-03-31T21:43:36.161Z,99322.69
2023-03-31T21:46:03.389Z,99322.75
2023-03-31T21:48:30.277Z,99320.19
2023-03-31T21:51:00.801Z,99329.25
2023-03-31T21:53:29.306Z,99328.41
2023-03-31T21:55:56.714Z,99320.47
2023-03-31T21:58:25.585Z,99318.66
2023-03-31T22:00:52.810Z,99323.06
2023-03-31T22:03:27.132Z,99323.31
2023-03-31T22:05:58.628Z,99324.28
2023-03-31T22:08:27.293Z,99319.72
2023-03-31T22:10:55.106Z,99328.19
2023-03-31T22:13:22.521Z,99327.91
2023-03-31T22:15:49.345Z,99323.63
2023-03-31T22:18:17.259Z,99326.56
2023-03-31T22:20:44.593Z,99330.28
2023-03-31T22:23:11.773Z,99324.47
2023-03-31T22:25:38.567Z,99327.13
2023-03-31T22:28:07.117Z,99329.16
2023-03-31T22:30:34.214Z,99325.34
2023-03-31T22:33:01.483Z,99340.22
2023-03-31T22:35:28.818Z,99335.59
2023-03-31T22:37:55.891Z,99342.38
2023-03-31T22:40:24.055Z,99342.88
2023-03-31T22:42:50.994Z,99340.31
2023-03-31T22:45:17.868Z,99345.66
2023-03-31T22:47:44.782Z,99344.78
2023-03-31T22:50:11.656Z,99343.81
2023-03-31T22:52:38.541Z,99345.81
2023-03-31T22:55:06.481Z,99341.06
2023-03-31T22:57:33.700Z,99344.97
2023-03-31T23:00:00.972Z,99343.16
2023-03-31T23:02:27.840Z,99345.94
2023-03-31T23:04:54.712Z,99342.22
2023-03-31T23:07:22.184Z,99342.22
2023-03-31T23:09:49.110Z,99347.72
2023-03-31T23:12:16.201Z,99346.13
2023-03-31T23:14:43.121Z,99348.03
2023-03-31T23:17:09.978Z,99349.53
2023-03-31T23:19:38.017Z,99353.91
2023-03-31T23:22:06.003Z,99346.78
2023-03-31T23:24:33.042Z,99357.47
2023-03-31T23:26:59.899Z,99350.00
2023-03-31T23:29:27.578Z,99355.66
2023-03-31T23:31:54.570Z,99350.38
2023-03-31T23:34:21.516Z,99357.53
2023-03-31T23:36:48.407Z,99348.31
2023-03-31T23:39:15.200Z,99344.00
2023-03-31T23:41:41.951Z,99346.94
2023-03-31T23:44:08.761Z,99347.63
2023-03-31T23:46:37.977Z,99342.38
2023-03-31T23:49:05.250Z,99344.28
2023-03-31T23:51:32.014Z,99347.94
2023-03-31T23:53:58.958Z,99350.09
2023-03-31T23:56:27.317Z,99350.75
2023-03-31T23:58:54.292Z,99351.69
